Terminal Aerodrome Forecast
Issued by NWS Grand Forks, ND

Home | Current Version | Previous Version | Graphics & Text | Print | Product List | Glossary On
Versions: 1 2 3 4 5 6 7 8 9 10 11 12 13 14 15 16 17 18 19
435
FTUS43 KFGF 242143 AAA
TAFGFK
TAF AMD
KGFK 242143Z 2422/2518 34012G18KT P6SM -RA OVC010
      TEMPO 2422/2424 2SM -RA BR
     FM250000 34008KT P6SM VCSH OVC008
     FM250300 35009KT P6SM OVC008=

USA.gov is the U.S. government's official web portal to all federal, state and local government web resources and services.